Time;durP1;ratioP1;P1;durP2;ratioP2;P2;SDS_P1;SDS_P2;PMS_P1;PMS_P2;Temp;Humidity;BMP_temperature;BMP_pressure;BME280_temperature;BME280_humidity;BME280_pressure;Samples;Min_cycle;Max_cycle;Signal;HPM_P1;HPM_P2
2021/01/04 00:01:47;;;;;;;16.73;15.03;;;;;;;-0.16;98.72;100521.50;4988327;28;20412;-74
2021/01/04 00:04:46;;;;;;;18.40;16.90;;;;;;;-0.19;98.67;100524.69;5033980;28;20436;-73
2021/01/04 00:07:22;;;;;;;18.63;17.10;;;;;;;-0.20;98.87;100525.75;5050214;28;20910;-75
2021/01/04 00:10:06;;;;;;;18.60;17.10;;;;;;;-0.21;98.54;100529.47;5049036;28;20479;-73
2021/01/04 00:12:48;;;;;;;20.23;18.33;;;;;;;-0.18;98.70;100526.31;5050202;28;20516;-74
2021/01/04 00:15:26;;;;;;;17.47;15.87;;;;;;;-0.19;98.51;100522.81;5050616;28;20777;-75
2021/01/04 00:18:26;;;;;;;18.40;16.83;;;;;;;-0.20;99.12;100531.09;5050108;28;20418;-73
2021/01/04 00:21:03;;;;;;;17.90;16.40;;;;;;;-0.20;98.92;100528.41;5050187;28;20437;-73
2021/01/04 00:23:55;;;;;;;20.07;18.23;;;;;;;-0.18;98.88;100523.63;5050338;28;20414;-73
2021/01/04 00:26:37;;;;;;;17.60;16.00;;;;;;;-0.18;98.55;100526.31;5051073;28;20437;-74
2021/01/04 00:29:03;;;;;;;17.83;16.23;;;;;;;-0.17;99.02;100534.13;5053852;28;20473;-74
2021/01/04 00:31:34;;;;;;;18.93;17.17;;;;;;;-0.17;98.95;100520.69;5053723;28;20421;-73
2021/01/04 00:34:18;;;;;;;19.67;18.00;;;;;;;-0.16;98.53;100524.19;5053877;28;20186;-73
2021/01/04 00:37:20;;;;;;;19.87;18.20;;;;;;;-0.15;99.17;100521.28;5053732;28;20869;-74
2021/01/04 00:39:51;;;;;;;19.73;17.67;;;;;;;-0.16;98.88;100533.06;5053690;28;20438;-73
2021/01/04 00:42:42;;;;;;;18.93;17.00;;;;;;;-0.17;98.54;100536.81;5053555;28;20418;-74
2021/01/04 00:45:27;;;;;;;17.30;15.70;;;;;;;-0.14;98.89;100528.31;5053580;28;20480;-73
2021/01/04 00:48:04;;;;;;;18.43;16.67;;;;;;;-0.14;98.94;100533.66;5052877;28;20540;-75
2021/01/04 00:50:47;;;;;;;17.10;15.60;;;;;;;-0.09;98.47;100535.63;5053570;28;20418;-75
2021/01/04 00:53:37;;;;;;;19.97;17.90;;;;;;;-0.12;98.87;100536.94;5053649;28;20409;-74
2021/01/04 00:56:15;;;;;;;17.70;16.07;;;;;;;-0.10;98.81;100534.00;5053266;28;20426;-74
2021/01/04 00:58:40;;;;;;;19.33;17.53;;;;;;;-0.10;98.31;100532.13;5053281;28;20410;-75
2021/01/04 01:01:20;;;;;;;17.83;16.13;;;;;;;-0.11;98.48;100532.38;5053205;28;20440;-74
2021/01/04 01:03:57;;;;;;;17.50;15.90;;;;;;;-0.10;99.14;100537.50;5053149;28;20179;-74
2021/01/04 01:06:34;;;;;;;17.50;16.00;;;;;;;-0.09;98.44;100532.94;5052677;28;20413;-75
2021/01/04 01:09:01;;;;;;;17.73;16.13;;;;;;;-0.11;98.60;100529.69;5053027;28;20503;-73
2021/01/04 01:11:49;;;;;;;18.67;17.07;;;;;;;-0.12;99.18;100533.44;5053049;28;20505;-74
2021/01/04 01:14:46;;;;;;;18.17;16.67;;;;;;;-0.09;98.54;100536.44;5053020;28;20827;-75
2021/01/04 01:17:41;;;;;;;18.60;16.97;;;;;;;-0.07;98.27;100537.00;5051842;28;20438;-73
2021/01/04 01:20:12;;;;;;;18.60;16.90;;;;;;;-0.08;99.00;100535.38;5052998;28;20767;-77
2021/01/04 01:22:41;;;;;;;14.27;13.07;;;;;;;-0.05;99.18;100539.47;5052825;28;20488;-74
2021/01/04 01:25:16;;;;;;;19.77;18.07;;;;;;;-0.07;98.69;100539.69;5052827;28;20537;-75
2021/01/04 01:28:19;;;;;;;17.27;15.77;;;;;;;-0.10;98.84;100536.69;5050792;28;20468;-73
2021/01/04 01:30:58;;;;;;;16.73;15.33;;;;;;;-0.10;99.06;100536.69;5052677;28;20428;-78
2021/01/04 01:33:47;;;;;;;16.17;14.67;;;;;;;-0.10;99.06;100534.00;5052545;28;20422;-75
2021/01/04 01:36:28;;;;;;;18.00;16.30;;;;;;;-0.10;98.58;100544.75;5052193;28;20906;-75
2021/01/04 01:39:25;;;;;;;18.83;16.53;;;;;;;-0.11;98.98;100541.25;5052308;28;20497;-74
2021/01/04 01:42:22;;;;;;;20.43;18.37;;;;;;;-0.10;98.91;100547.44;5052336;28;20414;-74
2021/01/04 01:44:56;;;;;;;17.97;16.33;;;;;;;-0.10;98.74;100544.75;5051070;28;20425;-73
2021/01/04 01:47:51;;;;;;;18.50;16.60;;;;;;;-0.12;99.17;100552.22;5051832;28;20417;-77
2021/01/04 01:50:33;;;;;;;19.63;17.93;;;;;;;-0.15;99.09;100548.13;5043687;28;20434;-74
2021/01/04 01:53:39;;;;;;;18.17;16.37;;;;;;;-0.17;99.13;100547.53;5052380;28;20893;-75
2021/01/04 01:56:11;;;;;;;18.83;17.17;;;;;;;-0.20;99.28;100553.41;5017892;28;20461;-74
2021/01/04 01:58:42;;;;;;;19.00;17.30;;;;;;;-0.21;99.17;100559.00;5051972;28;20417;-75
2021/01/04 02:01:15;;;;;;;18.07;16.47;;;;;;;-0.20;99.55;100556.09;5051137;28;20525;-74
2021/01/04 02:04:15;;;;;;;19.87;17.97;;;;;;;-0.20;99.14;100557.94;5051557;28;20764;-74
2021/01/04 02:06:55;;;;;;;17.70;16.00;;;;;;;-0.19;98.92;100563.09;5043092;28;20433;-76
2021/01/04 02:09:26;;;;;;;16.03;14.53;;;;;;;-0.17;99.33;100558.28;5051811;28;20465;-75
2021/01/04 02:12:30;;;;;;;16.50;15.00;;;;;;;-0.14;99.16;100557.84;5051765;28;20448;-73
2021/01/04 02:15:13;;;;;;;17.87;16.37;;;;;;;-0.13;99.07;100551.41;5051800;28;20402;-75
2021/01/04 02:18:06;;;;;;;16.20;14.80;;;;;;;-0.12;98.74;100553.03;5051365;28;20422;-76
2021/01/04 02:20:50;;;;;;;16.10;14.80;;;;;;;-0.11;98.85;100557.34;5051680;28;20459;-75
2021/01/04 02:23:40;;;;;;;17.30;16.00;;;;;;;-0.09;98.80;100559.78;5051652;28;20409;-77
2021/01/04 02:26:12;;;;;;;15.60;14.27;;;;;;;-0.08;98.90;100556.88;5051240;28;20421;-75
2021/01/04 02:28:48;;;;;;;13.67;12.27;;;;;;;-0.07;98.98;100546.94;5050203;28;20546;-74
2021/01/04 02:31:13;;;;;;;16.67;15.27;;;;;;;-0.10;98.96;100548.25;5051435;28;20898;-76
2021/01/04 02:33:39;;;;;;;15.23;14.00;;;;;;;-0.09;99.40;100549.06;5051461;28;20416;-77
2021/01/04 02:36:05;;;;;;;15.43;14.23;;;;;;;-0.12;98.65;100553.03;5050948;28;20271;-76
2021/01/04 02:38:41;;;;;;;14.30;13.10;;;;;;;-0.12;99.08;100553.03;5051142;28;20765;-75
2021/01/04 02:41:06;;;;;;;15.03;13.77;;;;;;;-0.14;99.05;100552.47;5051258;28;20175;-76
2021/01/04 02:43:31;;;;;;;14.80;13.37;;;;;;;-0.16;99.49;100559.09;5051162;28;20433;-76
2021/01/04 02:46:06;;;;;;;15.47;13.83;;;;;;;-0.21;99.27;100561.69;5050920;28;20645;-75
2021/01/04 02:48:54;;;;;;;15.07;13.77;;;;;;;-0.24;98.89;100559.50;5050654;28;20586;-74
2021/01/04 02:51:25;;;;;;;14.60;13.40;;;;;;;-0.30;99.81;100550.50;5049649;28;21001;-73
2021/01/04 02:54:04;;;;;;;13.37;12.10;;;;;;;-0.32;99.34;100556.09;5051109;28;20772;-74
2021/01/04 02:56:40;;;;;;;16.30;14.30;;;;;;;-0.35;99.11;100555.78;5050721;28;20902;-74
2021/01/04 02:59:27;;;;;;;16.23;14.73;;;;;;;-0.37;99.82;100555.19;5050780;28;20425;-75
2021/01/04 03:02:03;;;;;;;15.90;14.40;;;;;;;-0.39;99.52;100550.06;5051044;28;20417;-74
2021/01/04 03:04:32;;;;;;;16.97;15.37;;;;;;;-0.37;99.78;100553.31;5050976;28;20426;-75
2021/01/04 03:07:14;;;;;;;18.20;15.77;;;;;;;-0.39;99.85;100550.06;5050827;28;20806;-76
2021/01/04 03:09:46;;;;;;;18.90;17.10;;;;;;;-0.40;99.76;100547.63;5050786;28;20435;-74
2021/01/04 03:12:16;;;;;;;18.10;16.27;;;;;;;-0.39;99.88;100557.31;5050791;28;20417;-76
2021/01/04 03:15:09;;;;;;;21.93;17.40;;;;;;;-0.40;99.38;100553.81;5051011;28;20410;-76
2021/01/04 03:18:17;;;;;;;19.23;16.73;;;;;;;-0.37;100.00;100557.88;5049027;28;20454;-75
2021/01/04 03:20:42;;;;;;;17.37;15.57;;;;;;;-0.38;100.00;100562.44;5011354;28;20418;-73
2021/01/04 03:23:08;;;;;;;19.87;16.90;;;;;;;-0.35;99.62;100558.44;5050188;28;20418;-74
2021/01/04 03:25:39;;;;;;;17.67;15.83;;;;;;;-0.36;99.98;100554.97;5050407;28;20175;-75
2021/01/04 03:28:16;;;;;;;22.13;16.57;;;;;;;-0.36;100.00;100557.63;5049902;28;20221;-74
2021/01/04 03:30:41;;;;;;;18.50;16.70;;;;;;;-0.36;100.00;100554.13;5050452;28;20508;-76
2021/01/04 03:33:06;;;;;;;17.83;15.73;;;;;;;-0.34;99.60;100554.72;5050412;28;20977;-76
2021/01/04 03:35:32;;;;;;;17.93;16.23;;;;;;;-0.37;100.00;100553.31;5050330;28;20191;-75
2021/01/04 03:37:57;;;;;;;22.00;17.83;;;;;;;-0.36;100.00;100559.50;5049954;28;20186;-77
2021/01/04 03:40:22;;;;;;;23.37;17.33;;;;;;;-0.36;100.00;100552.28;5050500;28;20217;-73
2021/01/04 03:42:48;;;;;;;22.30;18.50;;;;;;;-0.34;100.00;100554.72;5050434;28;20183;-75
2021/01/04 03:45:15;;;;;;;25.07;18.47;;;;;;;-0.34;99.71;100550.16;5050399;28;20179;-74
2021/01/04 03:47:40;;;;;;;28.23;19.07;;;;;;;-0.34;100.00;100555.53;5049918;28;20241;-76
2021/01/04 03:50:07;;;;;;;23.43;18.13;;;;;;;-0.36;99.81;100554.97;5050408;28;20422;-76
2021/01/04 03:52:33;;;;;;;25.23;18.60;;;;;;;-0.36;100.00;100564.88;5050363;28;20207;-77
2021/01/04 03:54:58;;;;;;;28.33;20.23;;;;;;;-0.37;99.63;100557.88;5050702;28;20425;-76
2021/01/04 03:57:24;;;;;;;24.83;19.10;;;;;;;-0.36;100.00;100554.13;5049937;28;20236;-75
2021/01/04 03:59:49;;;;;;;25.33;19.17;;;;;;;-0.37;100.00;100558.69;5050516;28;20587;-76
2021/01/04 04:02:14;;;;;;;25.27;18.57;;;;;;;-0.36;100.00;100560.31;5054214;28;20563;-76
2021/01/04 04:04:40;;;;;;;24.70;17.03;;;;;;;-0.34;100.00;100557.41;5054325;28;20175;-77
2021/01/04 04:07:06;;;;;;;28.40;21.40;;;;;;;-0.35;100.00;100555.78;5053798;28;20182;-77
2021/01/04 04:09:31;;;;;;;35.00;20.50;;;;;;;-0.34;99.96;100557.41;5054170;28;20473;-74
2021/01/04 04:11:57;;;;;;;30.10;20.20;;;;;;;-0.33;100.00;100553.66;5054253;28;20714;-75
2021/01/04 04:14:22;;;;;;;32.47;21.10;;;;;;;-0.33;100.00;100559.84;5052578;28;20687;-75
2021/01/04 04:16:49;;;;;;;36.03;21.70;;;;;;;-0.32;100.00;100549.91;5053640;28;20171;-75
2021/01/04 04:19:14;;;;;;;40.70;22.13;;;;;;;-0.32;100.00;100552.59;5054014;28;20183;-75
2021/01/04 04:21:40;;;;;;;30.70;20.30;;;;;;;-0.31;100.00;100548.88;5053989;28;20517;-76
2021/01/04 04:24:06;;;;;;;37.00;22.57;;;;;;;-0.29;99.89;100554.81;5053902;28;20176;-75
2021/01/04 04:26:31;;;;;;;35.53;21.80;;;;;;;-0.27;100.00;100557.28;5053307;28;20262;-77
2021/01/04 04:28:56;;;;;;;41.30;24.23;;;;;;;-0.26;99.89;100546.31;5053738;28;20975;-76
2021/01/04 04:31:23;;;;;;;34.30;22.07;;;;;;;-0.23;100.00;100559.25;5053976;28;20183;-77
2021/01/04 04:33:48;;;;;;;38.63;22.20;;;;;;;-0.21;99.92;100556.31;5053807;28;20184;-74
2021/01/04 04:36:21;;;;;;;36.33;23.03;;;;;;;-0.23;100.00;100548.50;5053494;28;20428;-76
2021/01/04 04:38:47;;;;;;;38.83;23.50;;;;;;;-0.21;100.00;100549.09;5053411;28;20193;-76
2021/01/04 04:41:23;;;;;;;40.97;23.93;;;;;;;-0.19;100.00;100560.41;5053410;28;21136;-75
2021/01/04 04:43:50;;;;;;;41.37;24.77;;;;;;;-0.16;100.00;100559.91;5052311;28;20650;-75
2021/01/04 04:46:49;;;;;;;46.20;24.60;;;;;;;-0.14;100.00;100552.47;5052938;28;20425;-77
2021/01/04 04:49:38;;;;;;;53.77;25.30;;;;;;;-0.08;100.00;100561.44;5019611;28;20902;-75
2021/01/04 04:52:33;;;;;;;50.20;25.33;;;;;;;-0.08;100.00;100559.56;5053422;28;20437;-75
2021/01/04 04:55:34;;;;;;;46.70;26.13;;;;;;;-0.04;100.00;100557.19;5038316;28;20921;-74
2021/01/04 04:58:17;;;;;;;55.30;24.90;;;;;;;0.02;100.00;100568.88;5052611;28;20521;-76
2021/01/04 05:00:57;;;;;;;49.17;28.83;;;;;;;0.01;99.92;100556.50;5053223;28;20425;-76
2021/01/04 05:03:50;;;;;;;56.30;27.30;;;;;;;0.04;100.00;100561.41;5053069;28;20936;-76
2021/01/04 05:06:34;;;;;;;48.37;23.83;;;;;;;0.08;100.00;100565.22;5052298;28;20414;-76
2021/01/04 05:09:24;;;;;;;52.90;28.03;;;;;;;0.09;99.94;100564.16;5051837;28;20512;-76
2021/01/04 05:12:10;;;;;;;49.57;25.93;;;;;;;0.10;100.00;100561.25;5052128;28;20475;-75
2021/01/04 05:14:45;;;;;;;59.70;30.37;;;;;;;0.13;99.86;100566.13;5052854;28;20509;-77
2021/01/04 05:17:25;;;;;;;50.30;27.37;;;;;;;0.14;100.00;100569.63;5052617;28;20405;-75
2021/01/04 05:20:06;;;;;;;55.77;27.07;;;;;;;0.14;99.91;100556.19;5051582;28;20621;-73
2021/01/04 05:22:42;;;;;;;55.30;27.83;;;;;;;0.15;99.96;100566.72;5052751;28;20441;-76
2021/01/04 05:25:25;;;;;;;48.23;25.17;;;;;;;0.15;99.69;100563.22;5052677;28;20623;-76
2021/01/04 05:28:18;;;;;;;53.83;27.50;;;;;;;0.18;100.00;100565.44;5050937;28;20896;-76
2021/01/04 05:30:43;;;;;;;45.77;28.10;;;;;;;0.17;99.87;100564.63;5052662;28;20529;-73
2021/01/04 05:33:40;;;;;;;46.83;25.53;;;;;;;0.19;100.00;100572.44;5052774;28;20509;-73
2021/01/04 05:36:29;;;;;;;47.23;26.80;;;;;;;0.19;99.87;100567.88;5061582;28;20163;-75
2021/01/04 05:39:25;;;;;;;52.43;30.63;;;;;;;0.22;99.85;100566.56;5053935;28;20414;-73
2021/01/04 05:42:06;;;;;;;50.30;26.43;;;;;;;0.21;99.79;100563.06;5051455;28;20480;-74
2021/01/04 05:44:49;;;;;;;45.43;25.67;;;;;;;0.23;99.30;100562.81;5052717;28;20459;-73
2021/01/04 05:47:15;;;;;;;33.33;19.67;;;;;;;0.23;99.83;100562.81;5052312;28;20453;-73
2021/01/04 05:49:45;;;;;;;45.70;25.90;;;;;;;0.23;99.31;100560.13;5051074;28;20473;-73
2021/01/04 05:52:15;;;;;;;27.33;18.33;;;;;;;0.26;99.30;100571.22;5052913;28;20170;-73
2021/01/04 05:54:40;;;;;;;42.77;26.37;;;;;;;0.26;99.46;100562.34;5052386;28;20417;-76
2021/01/04 05:57:11;;;;;;;32.23;19.50;;;;;;;0.27;99.28;100561.28;5052117;28;20758;-75
2021/01/04 05:59:56;;;;;;;43.57;22.37;;;;;;;0.27;99.31;100566.66;5052528;28;20183;-75
2021/01/04 06:02:33;;;;;;;34.73;21.80;;;;;;;0.28;99.39;100561.03;5050800;28;20797;-75
2021/01/04 06:05:14;;;;;;;39.60;23.87;;;;;;;0.28;99.34;100560.22;5052111;28;20454;-75
2021/01/04 06:07:43;;;;;;;34.60;23.00;;;;;;;0.28;99.18;100571.78;5051664;28;20480;-75
2021/01/04 06:10:22;;;;;;;33.23;23.37;;;;;;;0.30;99.33;100568.88;5052028;28;20422;-75
2021/01/04 06:12:51;;;;;;;35.63;21.47;;;;;;;0.29;99.21;100556.50;5051958;28;20773;-73
2021/01/04 06:15:28;;;;;;;35.37;22.67;;;;;;;0.28;99.08;100561.03;5050558;28;21011;-73
2021/01/04 06:18:01;;;;;;;35.63;22.90;;;;;;;0.31;98.71;100561.63;5050099;28;20842;-74
2021/01/04 06:20:38;;;;;;;29.30;22.40;;;;;;;0.29;98.59;100560.00;5051736;28;20412;-75
2021/01/04 06:23:19;;;;;;;34.77;21.10;;;;;;;0.32;99.20;100553.34;5051771;28;20444;-74
2021/01/04 06:25:45;;;;;;;40.47;24.47;;;;;;;0.31;98.61;100557.09;5051679;28;20417;-74
2021/01/04 06:28:10;;;;;;;32.30;22.87;;;;;;;0.31;98.75;100556.28;5051085;28;20993;-76
2021/01/04 06:30:38;;;;;;;33.10;21.00;;;;;;;0.33;98.81;100560.34;5051600;28;20616;-73
2021/01/04 06:33:06;;;;;;;32.10;21.47;;;;;;;0.32;98.41;100561.41;5050315;28;20178;-74
2021/01/04 06:35:33;;;;;;;30.87;22.10;;;;;;;0.34;98.55;100561.97;5051434;28;20424;-75
2021/01/04 06:38:25;;;;;;;24.93;21.00;;;;;;;0.35;98.09;100566.28;5050908;28;20429;-77
2021/01/04 06:40:50;;;;;;;27.07;20.03;;;;;;;0.37;98.03;100566.03;5042082;28;20513;-74
2021/01/04 06:43:34;;;;;;;29.93;20.27;;;;;;;0.36;98.40;100569.78;5051240;28;20956;-77
2021/01/04 06:46:31;;;;;;;18.13;15.97;;;;;;;0.39;98.20;100571.97;5049888;28;20182;-74
2021/01/04 06:49:03;;;;;;;25.40;19.10;;;;;;;0.37;98.25;100585.66;5051081;28;20465;-73
2021/01/04 06:51:42;;;;;;;28.67;19.87;;;;;;;0.38;98.31;100581.09;5051154;28;20413;-74
2021/01/04 06:54:34;;;;;;;20.87;18.67;;;;;;;0.36;98.28;100575.97;5050944;28;20929;-76
2021/01/04 06:57:12;;;;;;;22.93;18.33;;;;;;;0.39;98.46;100582.72;5050616;28;20449;-75
2021/01/04 06:59:56;;;;;;;21.87;19.70;;;;;;;0.37;97.57;100580.28;5051011;28;20482;-73
2021/01/04 07:02:21;;;;;;;22.33;17.93;;;;;;;0.39;97.94;100583.53;5050875;28;20913;-75
2021/01/04 07:05:02;;;;;;;18.73;16.83;;;;;;;0.41;97.58;100584.13;5050926;28;20424;-74
2021/01/04 07:07:48;;;;;;;19.37;17.23;;;;;;;0.40;97.30;100579.81;5050276;28;20175;-76
2021/01/04 07:10:33;;;;;;;19.87;17.43;;;;;;;0.41;97.70;100597.56;5050807;28;20964;-72
2021/01/04 07:13:01;;;;;;;14.53;13.03;;;;;;;0.42;97.08;100585.75;5050899;28;20848;-74
2021/01/04 07:15:48;;;;;;;18.20;16.50;;;;;;;0.43;97.27;100597.31;5050756;28;20509;-75
2021/01/04 07:18:26;;;;;;;18.60;16.67;;;;;;;0.41;97.45;100608.31;5050393;28;20916;-73
2021/01/04 07:21:26;;;;;;;15.87;14.33;;;;;;;0.43;96.91;100598.13;5050697;28;20791;-73
2021/01/04 07:24:20;;;;;;;15.93;14.57;;;;;;;0.44;96.98;100596.28;5050976;28;20406;-77
2021/01/04 07:27:00;;;;;;;17.07;15.40;;;;;;;0.45;97.12;100597.91;5042393;28;20586;-75
2021/01/04 07:29:44;;;;;;;11.50;10.40;;;;;;;0.44;96.48;100602.47;5050397;28;20476;-75
2021/01/04 07:32:19;;;;;;;15.60;14.20;;;;;;;0.44;96.44;100604.34;5050493;28;20773;-75
2021/01/04 07:35:04;;;;;;;15.13;13.63;;;;;;;0.43;96.68;100600.00;5050023;28;20479;-75
2021/01/04 07:37:41;;;;;;;19.70;14.53;;;;;;;0.43;96.71;100600.81;5050062;28;20952;-74
2021/01/04 07:40:41;;;;;;;15.53;14.23;;;;;;;0.43;96.61;100600.81;5050357;28;20829;-75
2021/01/04 07:43:27;;;;;;;15.67;14.37;;;;;;;0.44;96.51;100607.84;5050577;28;20766;-78
2021/01/04 07:46:21;;;;;;;15.07;13.80;;;;;;;0.44;96.46;100607.03;5048819;28;21144;-82
2021/01/04 07:49:08;;;;;;;15.20;13.87;;;;;;;0.44;96.42;100607.84;5050186;28;20465;-75
2021/01/04 07:52:02;;;;;;;15.43;13.83;;;;;;;0.43;96.50;100602.69;5050221;28;20422;-75
2021/01/04 07:54:46;;;;;;;15.63;14.33;;;;;;;0.42;96.85;100609.13;5050193;28;20414;-75
2021/01/04 07:57:20;;;;;;;15.70;14.30;;;;;;;0.41;96.51;100608.31;5049778;28;20410;-76
2021/01/04 08:00:27;;;;;;;15.47;13.87;;;;;;;0.42;96.89;100612.63;5050113;28;20760;-74
2021/01/04 08:03:29;;;;;;;15.23;13.60;;;;;;;0.41;96.62;100612.88;5050195;28;20420;-77
2021/01/04 08:06:03;;;;;;;15.07;13.77;;;;;;;0.39;97.48;100606.91;5048536;28;20456;-75
2021/01/04 08:09:05;;;;;;;15.07;13.43;;;;;;;0.38;97.60;100613.34;5049831;28;20482;-77
2021/01/04 08:11:54;;;;;;;15.57;14.17;;;;;;;0.37;97.47;100612.53;5024232;28;20429;-74
2021/01/04 08:14:44;;;;;;;15.23;13.77;;;;;;;0.37;97.67;100617.91;5050267;28;20424;-74
2021/01/04 08:17:48;;;;;;;13.73;12.53;;;;;;;0.35;97.66;100628.09;5049679;28;20418;-74
2021/01/04 08:20:15;;;;;;;12.63;11.33;;;;;;;0.34;97.71;100622.94;5035480;28;20955;-75
2021/01/04 08:23:05;;;;;;;15.50;14.13;;;;;;;0.35;97.37;100619.22;5049870;28;20789;-78
2021/01/04 08:25:48;;;;;;;12.83;11.83;;;;;;;0.39;98.01;100623.84;5049855;28;20414;-78
2021/01/04 08:28:22;;;;;;;13.67;12.53;;;;;;;0.36;97.79;100621.66;5049212;28;20473;-74
2021/01/04 08:31:30;;;;;;;13.83;12.60;;;;;;;0.40;97.58;100628.19;5049987;28;20420;-76
2021/01/04 08:34:01;;;;;;;12.33;11.23;;;;;;;0.41;97.88;100632.50;5049798;28;20408;-76
2021/01/04 08:36:46;;;;;;;11.83;10.77;;;;;;;0.41;97.91;100635.19;5049718;28;20414;-74
2021/01/04 08:39:19;;;;;;;10.70;9.87;;;;;;;0.42;97.88;100641.38;5050061;28;20402;-74
2021/01/04 08:41:45;;;;;;;11.37;10.40;;;;;;;0.44;97.44;100640.09;5049888;28;20432;-74
2021/01/04 08:44:20;;;;;;;11.40;10.50;;;;;;;0.43;97.60;100643.81;5049919;28;20414;-76
2021/01/04 08:46:46;;;;;;;11.63;10.53;;;;;;;0.43;97.13;100643.00;5049578;28;20171;-79
2021/01/04 08:49:25;;;;;;;11.53;10.53;;;;;;;0.42;97.79;100647.56;5051856;28;20868;-74
2021/01/04 08:51:53;;;;;;;13.23;11.97;;;;;;;0.43;97.63;100643.81;5053645;28;20429;-76
2021/01/04 08:54:23;;;;;;;12.53;11.53;;;;;;;0.44;97.77;100641.97;5053370;28;20420;-75
2021/01/04 08:57:05;;;;;;;11.30;10.30;;;;;;;0.41;97.37;100642.44;5052964;28;20422;-74
2021/01/04 08:59:34;;;;;;;11.27;10.27;;;;;;;0.43;97.13;100643.00;5053239;28;20420;-78
2021/01/04 09:02:13;;;;;;;10.40;9.40;;;;;;;0.40;97.23;100638.09;5053145;28;20458;-75
2021/01/04 09:04:40;;;;;;;10.23;9.37;;;;;;;0.42;97.22;100634.13;5053268;28;20758;-78
2021/01/04 09:07:14;;;;;;;10.60;9.80;;;;;;;0.40;97.51;100640.78;5049782;28;20431;-73
2021/01/04 09:09:45;;;;;;;9.37;8.67;;;;;;;0.38;97.65;100641.03;5044013;28;20477;-79
2021/01/04 09:12:46;;;;;;;11.20;10.30;;;;;;;0.34;97.86;100637.19;5052973;28;20405;-77
2021/01/04 09:15:21;;;;;;;11.40;10.50;;;;;;;0.32;97.69;100646.56;5019285;28;20468;-76
2021/01/04 09:18:01;;;;;;;11.17;10.27;;;;;;;0.34;98.09;100639.06;5052624;28;20426;-76
2021/01/04 09:20:57;;;;;;;11.40;10.40;;;;;;;0.27;98.08;100644.56;5052704;28;20974;-75
2021/01/04 09:23:33;;;;;;;10.63;9.73;;;;;;;0.25;97.97;100644.81;5052948;28;20453;-76
2021/01/04 09:26:01;;;;;;;11.60;10.53;;;;;;;0.26;98.21;100651.00;5052709;28;20417;-75
2021/01/04 09:28:35;;;;;;;12.03;10.87;;;;;;;0.24;98.37;100643.19;5052453;28;20469;-74
2021/01/04 09:31:01;;;;;;;11.70;10.50;;;;;;;0.21;98.29;100651.72;5052753;28;20406;-78
2021/01/04 09:33:26;;;;;;;11.70;10.53;;;;;;;0.22;98.44;100652.53;5051321;28;20429;-75
2021/01/04 09:36:04;;;;;;;11.93;10.93;;;;;;;0.19;98.28;100653.84;5052445;28;20624;-76
2021/01/04 09:38:29;;;;;;;12.60;11.50;;;;;;;0.18;98.63;100651.38;5052407;28;20174;-75
2021/01/04 09:40:58;;;;;;;11.97;10.70;;;;;;;0.19;98.18;100650.34;5051175;28;20422;-75
2021/01/04 09:43:29;;;;;;;11.33;10.43;;;;;;;0.22;98.71;100650.66;5052442;28;20258;-75
2021/01/04 09:46:10;;;;;;;11.70;10.63;;;;;;;0.22;98.68;100644.47;5052244;28;20456;-76
2021/01/04 09:48:47;;;;;;;12.07;10.97;;;;;;;0.22;98.50;100647.16;5052392;28;20461;-76
2021/01/04 09:51:19;;;;;;;11.33;10.23;;;;;;;0.24;98.50;100650.44;5052421;28;20440;-76
2021/01/04 09:53:56;;;;;;;8.90;8.27;;;;;;;0.23;98.41;100652.31;5052273;28;20417;-75
2021/01/04 09:56:28;;;;;;;13.97;12.87;;;;;;;0.20;98.15;100655.47;5052347;28;20397;-76
2021/01/04 09:59:03;;;;;;;11.10;10.30;;;;;;;0.19;98.67;100644.97;5052213;28;20402;-74
2021/01/04 10:01:31;;;;;;;11.90;11.00;;;;;;;0.17;98.18;100647.88;5052081;28;20417;-73
2021/01/04 10:03:59;;;;;;;11.57;10.67;;;;;;;0.17;98.84;100645.19;5051186;28;20497;-77
2021/01/04 10:06:32;;;;;;;11.63;10.73;;;;;;;0.21;98.98;100640.97;5050253;28;20441;-75
2021/01/04 10:08:57;;;;;;;11.27;10.27;;;;;;;0.25;98.89;100641.31;5051822;28;20544;-75
2021/01/04 10:11:23;;;;;;;12.17;10.73;;;;;;;0.23;98.51;100643.44;5050746;28;20865;-74
2021/01/04 10:13:52;;;;;;;15.93;14.37;;;;;;;0.24;98.75;100650.44;5051777;28;20258;-74
2021/01/04 10:16:26;;;;;;;10.70;9.80;;;;;;;0.22;98.66;100647.97;5049945;28;20430;-75
2021/01/04 10:19:13;;;;;;;12.00;11.00;;;;;;;0.22;98.89;100647.16;5051636;28;20414;-75
2021/01/04 10:21:51;;;;;;;14.53;13.23;;;;;;;0.20;99.29;100641.22;5051987;28;20467;-71
2021/01/04 10:24:22;;;;;;;13.57;12.37;;;;;;;0.18;99.11;100646.03;5051563;28;20524;-75
2021/01/04 10:26:50;;;;;;;12.70;11.60;;;;;;;0.16;98.94;100650.81;5050944;28;20590;-72
2021/01/04 10:29:22;;;;;;;14.90;13.50;;;;;;;0.22;99.56;100647.16;5051192;28;20458;-77
2021/01/04 10:31:51;;;;;;;18.87;17.33;;;;;;;0.16;99.55;100642.75;5051556;28;20801;-78
2021/01/04 10:34:20;;;;;;;15.27;13.73;;;;;;;0.22;99.45;100636.41;5051321;28;20796;-75
2021/01/04 10:37:03;;;;;;;15.10;13.53;;;;;;;0.24;99.04;100642.38;5051059;28;20421;-76
2021/01/04 10:39:35;;;;;;;19.47;17.67;;;;;;;0.20;99.33;100628.59;5051274;28;20440;-77
2021/01/04 10:42:20;;;;;;;11.17;10.27;;;;;;;0.22;99.30;100633.72;5051133;28;20418;-77
2021/01/04 10:44:47;;;;;;;12.93;11.93;;;;;;;0.28;99.05;100624.72;5051229;28;20413;-77
2021/01/04 10:47:23;;;;;;;12.33;11.43;;;;;;;0.26;99.10;100627.63;5050775;28;20418;-77
2021/01/04 10:49:49;;;;;;;14.97;13.63;;;;;;;0.28;99.08;100633.59;5050925;28;20976;-76
2021/01/04 10:52:23;;;;;;;14.80;13.63;;;;;;;0.29;99.12;100621.81;5050884;28;20428;-77
2021/01/04 10:54:49;;;;;;;13.20;12.20;;;;;;;0.32;98.68;100623.19;5050945;28;20224;-78
2021/01/04 10:57:14;;;;;;;11.23;10.27;;;;;;;0.33;98.93;100616.75;5050684;28;20409;-78
2021/01/04 11:00:03;;;;;;;14.00;12.80;;;;;;;0.40;99.24;100622.81;5050886;28;20441;-77
2021/01/04 11:02:45;;;;;;;13.73;12.53;;;;;;;0.43;99.06;100621.50;5050599;28;20172;-78
2021/01/04 11:05:12;;;;;;;12.03;11.03;;;;;;;0.44;99.20;100626.66;5050859;28;20421;-77
2021/01/04 11:07:39;;;;;;;13.73;12.73;;;;;;;0.41;98.50;100623.63;5050140;28;20463;-77
2021/01/04 11:10:29;;;;;;;11.50;10.50;;;;;;;0.38;98.36;100621.41;5047474;28;20460;-77
2021/01/04 11:12:57;;;;;;;13.83;12.63;;;;;;;0.37;98.86;100623.28;5040759;28;20430;-77
2021/01/04 11:15:28;;;;;;;10.63;9.83;;;;;;;0.31;98.37;100616.19;5050130;28;20463;-76
2021/01/04 11:18:09;;;;;;;10.47;9.77;;;;;;;0.30;98.59;100617.25;5049820;28;20421;-74
2021/01/04 11:20:35;;;;;;;8.30;7.60;;;;;;;0.25;98.66;100617.94;5050448;28;20648;-76
2021/01/04 11:23:04;;;;;;;10.17;9.37;;;;;;;0.26;98.48;100621.44;5050491;28;20500;-77
2021/01/04 11:25:29;;;;;;;10.57;9.77;;;;;;;0.17;98.52;100612.97;5050395;28;20848;-76
2021/01/04 11:27:55;;;;;;;12.03;11.13;;;;;;;0.15;98.74;100619.63;5049403;28;20500;-77
2021/01/04 11:30:22;;;;;;;11.33;10.37;;;;;;;0.10;98.52;100604.22;5050204;28;20199;-77
2021/01/04 11:32:47;;;;;;;8.60;7.90;;;;;;;0.10;98.95;100609.59;5050000;28;20945;-77
2021/01/04 11:35:13;;;;;;;11.60;10.50;;;;;;;0.07;98.66;100602.00;5050920;28;20470;-78
2021/01/04 11:37:38;;;;;;;13.23;12.27;;;;;;;0.04;99.05;100602.50;5056527;28;20197;-77
2021/01/04 11:40:04;;;;;;;12.93;11.83;;;;;;;0.01;99.12;100599.47;5056676;28;20186;-79
2021/01/04 11:42:30;;;;;;;13.93;12.57;;;;;;;-0.03;99.01;100599.09;5050764;28;20175;-78
2021/01/04 11:44:55;;;;;;;16.60;15.30;;;;;;;-0.03;98.97;100591.88;5050357;28;20467;-79
2021/01/04 11:47:21;;;;;;;13.50;12.37;;;;;;;-0.01;99.53;100600.50;5050105;28;20171;-79
2021/01/04 11:49:46;;;;;;;15.17;14.03;;;;;;;0.01;99.49;100602.97;5050325;28;20240;-79
2021/01/04 11:52:11;;;;;;;16.07;14.67;;;;;;;-0.02;99.50;100592.69;5050217;28;20183;-79
2021/01/04 11:54:41;;;;;;;13.43;12.30;;;;;;;0.02;99.25;100595.75;5050409;28;20293;-77
2021/01/04 11:57:06;;;;;;;13.70;12.50;;;;;;;0.06;99.17;100588.81;5050281;28;20261;-75
2021/01/04 11:59:34;;;;;;;18.13;16.53;;;;;;;0.08;99.40;100586.72;5049011;28;20878;-77